Rejestracja

Wszystkie dane podawane są w czasie UTC za wyjątkiem miejsc gdzie jest jednoznacznie podane, że jest inaczej. Dane podawane w serwisie mają charakter informacyjny!!!
Informacje w sprawie dostępu do serwisu pod numerem tel. +48 261-828-559 lub +48 261-828-138
Informacja dla żołnierzy i pracowników wojska: Prosimy o niezwłoczną zmianę adresu e-mail w profilu użytkownika na pocztę w domenie @ron.mil.pl
Brak służbowego adresu e-mail skutkuje usunięciem konta.

Aktualna Pogoda
 
Pogoda w Polsce
18°C Szczecin 13°C Suwałki 19°C Warszawa 19°C Poznan
18°C Opole 21°C Kraków 23°C Rzeszów
Więcej miast w Polsce

Pogoda w Europie
18°C Berlin 20°C Paryz 21°C Bruksela 11°C Oslo
17°C Praga 24°C Zagrzeb
Więcej miast w Europie

Metary wojskowe test
METAR EPBC 161600Z AUTO 00000KT 9000 SCT0049 19/18 Q1011=
METAR EPCE 161630Z 28004KT 9999 BKN058 16/15 Q1011 RMK 164 090 5/5=
METAR EPDA 161630Z 26007KT 230V310 9999 FEW051 BKN061 18/15 Q1010 RMK 178 082 7/1=
METAR EPDE 161630Z 16002KT CAVOK 20/17 Q1012 RMK 200 084 8/5=
METAR EPIR 161630Z 24006KT 9999 BKN045 18/16 Q1011 RMK 183 087 6/6=
METAR EPKS 161630Z 29012KT 9999 SCT048 18/12 Q1012 RMK 181 067 4/4=
METAR EPLK 161630Z 23003KT 6000 -SHRA SCT004 BKN020CB OVC050 18/18 Q1012 RMK 182 100 8/4=
METAR EPLY 161630Z 26002KT 8000 FEW020 BKN050 BKN070 20/18 Q1011 RMK 199 087 7/2=
METAR EPMB 161630Z 35001KT 8000 SCT008 BKN018 OVC030 19/17 Q1010 RMK 186 092 8/3=
METAR EPMI 161630Z 25006KT 9999 BKN050 17/13 Q1011 RMK 171 076 5/5=
METAR EPMM 161630Z 20003KT 170V260 3000 -SHRA BR SCT014CB OVC024 18/18 Q1011 RMK 183 100 8/4=
METAR EPNA 161400Z 27004KT 9999 SCT016 BKN050 19/14 Q1010 RMK 190 074 7/3=
METAR EPOK 161630Z VRB02KT 9999 FEW015 BKN041 18/16 Q1010 RMK 175 089 7/1=
METAR EPPR 161630Z 00000KT 9999 BKN062 18/15 Q1010 RMK 181 082 6/6=
METAR EPPW 161630Z 29012KT 9999 SCT025 BKN035 19/15 Q1012 RMK 188 077 7/3=
METAR EPSN 161630Z AUTO 25004KT 9999 OVC054/// 17/13 Q1011 RMK 174 076 8/8=
METAR EPTM 161630Z 30002KT 7000 -RA FEW009 SCT013 OVC024 19/18 Q1012 RMK 186 095 8/2=


 

Prawa autorskie©2007 SSH SZ RP. Wszelkie prawa zastrzeżone.